createdAt,value
2022-08-03T00:01:28.350Z,69.47
2022-08-03T00:03:55.327Z,68.89
2022-08-03T00:06:21.946Z,70.23
2022-08-03T00:08:49.467Z,67.78
2022-08-03T00:11:16.114Z,69.47
2022-08-03T00:13:43.116Z,67.95
2022-08-03T00:16:10.770Z,69.72
2022-08-03T00:18:37.910Z,69.03
2022-08-03T00:21:05.666Z,68.74
2022-08-03T00:23:51.527Z,71.38
2022-08-03T00:26:20.159Z,68.84
2022-08-03T00:28:46.739Z,69.86
2022-08-03T00:31:13.858Z,69.74
2022-08-03T00:33:58.306Z,69.23
2022-08-03T00:36:27.611Z,69.36
2022-08-03T00:38:54.962Z,69.87
2022-08-03T00:41:21.761Z,71.18
2022-08-03T00:43:48.582Z,70.61
2022-08-03T00:46:19.199Z,69.61
2022-08-03T00:48:52.417Z,69.22
2022-08-03T00:51:20.758Z,71.04
2022-08-03T00:53:47.899Z,69.55
2022-08-03T00:56:15.617Z,69.59
2022-08-03T00:58:44.549Z,69.68
2022-08-03T01:01:12.478Z,69.08
2022-08-03T01:03:39.483Z,69.56
2022-08-03T01:06:29.329Z,71.00
2022-08-03T01:09:32.049Z,70.36
2022-08-03T01:12:14.975Z,70.91
2022-08-03T01:14:50.238Z,70.85
2022-08-03T01:17:25.832Z,69.56
2022-08-03T01:20:11.755Z,71.78
2022-08-03T01:23:09.915Z,71.62
2022-08-03T01:26:09.444Z,69.91
2022-08-03T01:28:58.360Z,72.35
2022-08-03T01:31:33.610Z,70.38
2022-08-03T01:34:21.479Z,71.56
2022-08-03T01:36:52.820Z,71.95
2022-08-03T01:39:22.043Z,71.92
2022-08-03T01:41:53.437Z,73.29
2022-08-03T01:44:29.735Z,71.97
2022-08-03T01:47:00.183Z,72.76
2022-08-03T01:49:28.524Z,72.25
2022-08-03T01:52:03.617Z,72.38
2022-08-03T01:54:37.870Z,71.85
2022-08-03T01:57:06.089Z,71.26
2022-08-03T01:59:35.386Z,73.39
2022-08-03T02:02:28.054Z,74.03
2022-08-03T02:04:54.133Z,73.29
2022-08-03T02:07:21.403Z,73.08
2022-08-03T02:09:53.919Z,70.98
2022-08-03T02:12:22.759Z,71.64
2022-08-03T02:14:50.725Z,72.97
2022-08-03T02:17:18.860Z,72.82
2022-08-03T02:20:07.402Z,74.16
2022-08-03T02:22:35.043Z,73.00
2022-08-03T02:25:01.810Z,74.87
2022-08-03T02:27:32.467Z,75.02
2022-08-03T02:30:05.285Z,73.90
2022-08-03T02:32:36.719Z,73.01
2022-08-03T02:35:06.884Z,74.67
2022-08-03T02:37:37.558Z,75.89
2022-08-03T02:40:11.594Z,74.27
2022-08-03T02:42:40.294Z,72.94
2022-08-03T02:45:12.406Z,73.86
2022-08-03T02:47:54.600Z,74.78
2022-08-03T02:50:22.952Z,74.37
2022-08-03T02:52:51.166Z,72.74
2022-08-03T02:55:21.644Z,75.74
2022-08-03T02:57:49.988Z,73.50
2022-08-03T03:00:19.478Z,74.47
2022-08-03T03:02:58.020Z,75.08
2022-08-03T03:05:55.754Z,75.10
2022-08-03T03:08:17.615Z,73.67
2022-08-03T03:10:46.644Z,74.33
2022-08-03T03:13:15.780Z,74.75
2022-08-03T03:15:44.813Z,74.75
2022-08-03T03:18:12.953Z,74.77
2022-08-03T03:20:40.930Z,75.06
2022-08-03T03:23:09.712Z,75.46
2022-08-03T03:25:36.762Z,76.54
2022-08-03T03:28:06.353Z,75.88
2022-08-03T03:30:33.508Z,75.72
2022-08-03T03:33:00.709Z,74.69
2022-08-03T03:35:27.972Z,75.03
2022-08-03T03:37:54.876Z,75.28
2022-08-03T03:40:22.243Z,75.45
2022-08-03T03:42:49.819Z,74.59
2022-08-03T03:45:16.570Z,75.42
2022-08-03T03:47:43.357Z,75.11
2022-08-03T03:50:10.987Z,76.17
2022-08-03T03:52:37.860Z,75.14
2022-08-03T03:55:04.881Z,77.18
2022-08-03T03:57:31.499Z,75.29
2022-08-03T03:59:58.094Z,75.83
2022-08-03T04:02:24.976Z,74.92
2022-08-03T04:05:10.212Z,76.33
2022-08-03T04:08:16.236Z,76.22
2022-08-03T04:11:00.462Z,75.48
2022-08-03T04:13:40.905Z,76.21
2022-08-03T04:16:10.720Z,76.70
2022-08-03T04:18:40.408Z,75.66
2022-08-03T04:21:10.569Z,76.75
2022-08-03T04:23:41.814Z,75.94
2022-08-03T04:26:12.021Z,76.55
2022-08-03T04:28:43.539Z,75.85
2022-08-03T04:31:10.294Z,75.85
2022-08-03T04:33:38.936Z,76.09
2022-08-03T04:36:08.923Z,77.15
2022-08-03T04:38:40.806Z,76.73
2022-08-03T04:41:08.872Z,76.37
2022-08-03T04:43:39.643Z,75.95
2022-08-03T04:46:07.870Z,76.10
2022-08-03T04:48:34.848Z,77.22
2022-08-03T04:51:04.327Z,75.88
2022-08-03T04:53:31.299Z,76.47
2022-08-03T04:56:07.363Z,76.44
2022-08-03T04:58:34.119Z,75.47
2022-08-03T05:01:00.787Z,75.52
2022-08-03T05:03:27.424Z,75.92
2022-08-03T05:06:01.678Z,75.51
2022-08-03T05:08:29.282Z,75.37
2022-08-03T05:10:59.004Z,75.41
2022-08-03T05:13:26.130Z,74.95
2022-08-03T05:15:53.035Z,75.04
2022-08-03T05:18:19.723Z,74.85
2022-08-03T05:20:46.351Z,74.46
2022-08-03T05:23:13.011Z,73.95
2022-08-03T05:25:39.691Z,73.88
2022-08-03T05:28:12.876Z,74.14
2022-08-03T05:30:39.593Z,73.48
2022-08-03T05:33:06.312Z,73.99
2022-08-03T05:35:57.920Z,73.96
2022-08-03T05:38:28.181Z,73.14
2022-08-03T05:41:21.375Z,71.98
2022-08-03T05:43:44.988Z,70.82
2022-08-03T05:46:13.144Z,69.92
2022-08-03T05:48:40.569Z,69.07
2022-08-03T05:51:07.767Z,68.29
2022-08-03T05:53:35.191Z,67.60
2022-08-03T05:56:13.359Z,67.72
2022-08-03T05:58:47.211Z,67.09
2022-08-03T06:01:15.789Z,66.49
2022-08-03T06:03:42.640Z,65.05
2022-08-03T06:06:09.569Z,64.88
2022-08-03T06:08:36.281Z,63.52
2022-08-03T06:11:03.539Z,62.17
2022-08-03T06:13:30.287Z,61.87
2022-08-03T06:15:56.920Z,60.55
2022-08-03T06:18:24.692Z,60.89
2022-08-03T06:20:52.278Z,60.72
2022-08-03T06:23:19.572Z,59.73
2022-08-03T06:25:46.995Z,58.69
2022-08-03T06:28:51.778Z,57.56
2022-08-03T06:31:06.572Z,56.15
2022-08-03T06:34:31.540Z,53.97
2022-08-03T06:36:20.493Z,52.44
2022-08-03T06:38:47.126Z,52.82
2022-08-03T06:41:13.721Z,50.06
2022-08-03T06:44:03.984Z,51.06
2022-08-03T06:47:39.359Z,48.11
2022-08-03T06:50:17.412Z,49.27
2022-08-03T06:52:44.622Z,48.30
2022-08-03T06:55:11.515Z,48.02
2022-08-03T06:57:38.148Z,47.14
2022-08-03T07:00:09.187Z,46.73
2022-08-03T07:02:39.864Z,46.63
2022-08-03T07:05:07.776Z,46.68
2022-08-03T07:07:34.463Z,45.77
2022-08-03T07:10:02.273Z,45.61
2022-08-03T07:12:37.059Z,43.49
2022-08-03T07:15:20.482Z,45.33
2022-08-03T07:18:06.936Z,44.46
2022-08-03T07:20:33.669Z,42.96
2022-08-03T07:23:00.272Z,43.45
2022-08-03T07:25:26.889Z,42.53
2022-08-03T07:27:53.493Z,42.57
2022-08-03T07:30:23.384Z,41.84
2022-08-03T07:32:50.695Z,42.87
2022-08-03T07:35:25.294Z,42.35
2022-08-03T07:37:54.287Z,42.33
2022-08-03T07:40:22.276Z,42.08
2022-08-03T07:42:52.209Z,41.55
2022-08-03T07:45:23.564Z,41.92
2022-08-03T07:47:53.498Z,41.59
2022-08-03T07:50:21.004Z,41.33
2022-08-03T07:52:47.962Z,41.25
2022-08-03T07:55:15.326Z,40.63
2022-08-03T07:57:42.162Z,39.80
2022-08-03T08:00:17.114Z,38.61
2022-08-03T08:02:44.803Z,38.93
2022-08-03T08:05:12.596Z,39.39
2022-08-03T08:07:39.762Z,39.36
2022-08-03T08:10:08.188Z,38.79
2022-08-03T08:12:35.096Z,39.28
2022-08-03T08:15:02.105Z,38.89
2022-08-03T08:17:28.734Z,37.67
2022-08-03T08:19:55.460Z,38.35
2022-08-03T08:22:23.482Z,37.11
2022-08-03T08:24:57.091Z,37.33
2022-08-03T08:27:23.701Z,36.92
2022-08-03T08:29:54.244Z,36.86
2022-08-03T08:32:24.237Z,36.85
2022-08-03T08:34:51.174Z,36.98
2022-08-03T08:37:17.813Z,34.91
2022-08-03T08:39:44.403Z,34.91
2022-08-03T08:42:11.025Z,34.61
2022-08-03T08:44:37.706Z,35.02
2022-08-03T08:47:04.826Z,35.07
2022-08-03T08:49:34.164Z,34.33
2022-08-03T08:52:03.254Z,34.56
2022-08-03T08:54:32.506Z,33.73
2022-08-03T08:57:02.768Z,33.51
2022-08-03T08:59:47.882Z,32.78
2022-08-03T09:02:16.148Z,32.95
2022-08-03T09:04:43.429Z,31.63
2022-08-03T09:07:20.006Z,32.18
2022-08-03T09:10:10.745Z,32.69
2022-08-03T09:12:48.170Z,30.61
2022-08-03T09:15:26.586Z,30.62
2022-08-03T09:17:55.923Z,31.55
2022-08-03T09:20:24.576Z,31.39
2022-08-03T09:22:59.040Z,31.00
2022-08-03T09:25:37.269Z,30.18
2022-08-03T09:28:10.381Z,30.62
2022-08-03T09:30:39.981Z,31.01
2022-08-03T09:33:12.404Z,30.60
2022-08-03T09:35:54.095Z,30.18
2022-08-03T09:38:27.411Z,30.25
2022-08-03T09:40:59.535Z,29.81
2022-08-03T09:43:27.708Z,29.90
2022-08-03T09:46:05.449Z,29.37
2022-08-03T09:48:34.922Z,29.31
2022-08-03T09:51:32.335Z,29.80
2022-08-03T09:53:58.969Z,30.07
2022-08-03T09:56:41.429Z,29.45
2022-08-03T09:59:09.051Z,29.73
2022-08-03T10:01:36.147Z,29.76
2022-08-03T10:04:05.141Z,28.56
2022-08-03T10:06:32.325Z,28.78
2022-08-03T10:09:17.335Z,28.97
2022-08-03T10:11:44.944Z,29.03
2022-08-03T10:14:22.565Z,29.41
2022-08-03T10:16:49.707Z,28.43
2022-08-03T10:19:16.737Z,29.03
2022-08-03T10:21:57.060Z,28.79
2022-08-03T10:24:27.363Z,29.10
2022-08-03T10:27:04.026Z,29.49
2022-08-03T10:29:42.875Z,28.09
2022-08-03T10:32:19.104Z,28.30
2022-08-03T10:34:48.504Z,28.23
2022-08-03T10:37:17.838Z,28.68
2022-08-03T10:39:54.233Z,28.99
2022-08-03T10:42:24.168Z,28.31
2022-08-03T10:45:16.519Z,28.31
2022-08-03T10:47:43.507Z,28.02
2022-08-03T10:50:11.390Z,27.97
2022-08-03T10:52:57.832Z,28.48
2022-08-03T10:56:03.538Z,27.46
2022-08-03T10:58:38.164Z,27.85
2022-08-03T11:01:58.918Z,27.46
2022-08-03T11:04:29.327Z,28.03
2022-08-03T11:07:22.191Z,26.99
2022-08-03T11:09:54.468Z,28.44
2022-08-03T11:12:28.303Z,28.28
2022-08-03T11:15:01.189Z,27.78
2022-08-03T11:17:28.093Z,28.64
2022-08-03T11:19:57.618Z,28.28
2022-08-03T11:22:28.666Z,28.14
2022-08-03T11:24:57.264Z,27.80
2022-08-03T11:27:29.539Z,27.89
2022-08-03T11:30:10.552Z,28.45
2022-08-03T11:32:37.448Z,28.20
2022-08-03T11:35:19.498Z,27.47
2022-08-03T11:38:03.289Z,27.64
2022-08-03T11:40:43.150Z,27.56
2022-08-03T11:43:21.964Z,28.12
2022-08-03T11:46:02.278Z,29.12
2022-08-03T11:48:34.474Z,28.83
2022-08-03T11:51:02.267Z,27.69
2022-08-03T11:53:29.100Z,28.44
2022-08-03T11:55:59.916Z,28.44
2022-08-03T11:59:10.956Z,28.60
2022-08-03T12:01:21.193Z,27.84
2022-08-03T12:03:50.234Z,28.83
2022-08-03T12:06:17.886Z,28.63
2022-08-03T12:08:45.536Z,29.54
2022-08-03T12:11:15.443Z,28.30
2022-08-03T12:14:26.824Z,29.26
2022-08-03T12:16:37.875Z,28.45
2022-08-03T12:19:06.948Z,28.35
2022-08-03T12:21:33.829Z,28.89
2022-08-03T12:24:02.755Z,28.76
2022-08-03T12:26:30.896Z,29.12
2022-08-03T12:28:58.402Z,29.28
2022-08-03T12:31:25.739Z,28.58
2022-08-03T12:34:06.635Z,28.10
2022-08-03T12:36:35.222Z,28.34
2022-08-03T12:39:05.523Z,28.12
2022-08-03T12:41:35.448Z,28.34
2022-08-03T12:44:06.554Z,27.76
2022-08-03T12:46:41.658Z,27.90
2022-08-03T12:49:13.491Z,27.43
2022-08-03T12:51:42.960Z,28.61
2022-08-03T12:54:24.718Z,28.03
2022-08-03T12:57:04.632Z,27.47
2022-08-03T12:59:40.818Z,27.88
2022-08-03T13:02:20.374Z,27.67
2022-08-03T13:04:52.060Z,28.04
2022-08-03T13:07:20.558Z,27.49
2022-08-03T13:09:55.409Z,27.72
2022-08-03T13:12:24.901Z,27.90
2022-08-03T13:14:55.025Z,27.98
2022-08-03T13:17:21.997Z,29.03
2022-08-03T13:19:49.092Z,28.66
2022-08-03T13:22:20.640Z,28.70
2022-08-03T13:24:48.977Z,29.25
2022-08-03T13:28:11.075Z,29.15
2022-08-03T13:30:04.538Z,29.54
2022-08-03T13:32:31.200Z,28.89
2022-08-03T13:34:57.935Z,29.49
2022-08-03T13:37:25.400Z,29.48
2022-08-03T13:39:59.558Z,28.58
2022-08-03T13:42:32.081Z,27.67
2022-08-03T13:45:00.349Z,28.14
2022-08-03T13:47:28.126Z,28.87
2022-08-03T13:50:00.734Z,27.86
2022-08-03T13:52:34.080Z,27.87
2022-08-03T13:55:02.467Z,28.09
2022-08-03T13:58:19.008Z,29.36
2022-08-03T14:00:28.190Z,28.46
2022-08-03T14:03:03.867Z,28.83
2022-08-03T14:05:32.525Z,28.66
2022-08-03T14:08:04.527Z,28.96
2022-08-03T14:10:35.700Z,28.91
2022-08-03T14:13:02.736Z,29.96
2022-08-03T14:15:29.772Z,30.86
2022-08-03T14:17:58.706Z,31.52
2022-08-03T14:20:37.892Z,31.95
2022-08-03T14:23:14.349Z,32.14
2022-08-03T14:25:51.650Z,31.69
2022-08-03T14:28:23.126Z,31.71
2022-08-03T14:30:51.008Z,30.52
2022-08-03T14:33:17.839Z,30.06
2022-08-03T14:35:44.516Z,29.60
2022-08-03T14:38:11.156Z,29.03
2022-08-03T14:40:37.896Z,29.18
2022-08-03T14:43:04.717Z,28.43
2022-08-03T14:45:31.329Z,28.93
2022-08-03T14:50:33.887Z,28.43
2022-08-03T14:50:51.079Z,28.62
2022-08-03T14:53:19.173Z,28.04
2022-08-03T14:55:50.471Z,28.26
2022-08-03T14:58:22.189Z,28.63
2022-08-03T15:00:50.486Z,28.35
2022-08-03T15:03:20.449Z,28.24
2022-08-03T15:05:47.401Z,28.88
2022-08-03T15:08:14.033Z,28.74
2022-08-03T15:10:44.321Z,28.86
2022-08-03T15:13:15.372Z,29.10
2022-08-03T15:15:42.170Z,29.70
2022-08-03T15:18:09.025Z,29.47
2022-08-03T15:20:44.356Z,29.35
2022-08-03T15:23:12.283Z,29.75
2022-08-03T15:26:31.997Z,29.50
2022-08-03T15:28:25.575Z,29.03
2022-08-03T15:30:52.899Z,28.33
2022-08-03T15:33:19.583Z,28.10
2022-08-03T15:35:47.363Z,28.17
2022-08-03T15:38:14.000Z,27.79
2022-08-03T15:40:40.800Z,27.12
2022-08-03T15:43:07.965Z,27.78
2022-08-03T15:45:35.316Z,28.32
2022-08-03T15:48:04.259Z,28.66
2022-08-03T15:50:30.889Z,28.89
2022-08-03T15:52:57.543Z,28.92
2022-08-03T15:55:24.278Z,29.71
2022-08-03T15:59:09.885Z,30.24
2022-08-03T16:00:38.484Z,30.87
2022-08-03T16:03:05.671Z,31.24
2022-08-03T16:05:32.352Z,30.51
2022-08-03T16:08:03.432Z,30.97
2022-08-03T16:10:32.102Z,30.88
2022-08-03T16:13:00.021Z,30.92
2022-08-03T16:15:27.384Z,31.12
2022-08-03T16:17:54.322Z,31.62
2022-08-03T16:20:31.428Z,31.94
2022-08-03T16:23:10.702Z,32.49
2022-08-03T16:25:44.392Z,32.10
2022-08-03T16:28:17.155Z,31.65
2022-08-03T16:30:45.601Z,30.90
2022-08-03T16:33:17.363Z,31.25
2022-08-03T16:35:46.129Z,31.17
2022-08-03T16:38:18.522Z,30.95
2022-08-03T16:40:47.171Z,31.11
2022-08-03T16:43:18.253Z,30.85
2022-08-03T16:45:47.165Z,30.65
2022-08-03T16:48:15.290Z,31.11
2022-08-03T16:50:42.125Z,31.94
2022-08-03T16:53:10.047Z,32.39
2022-08-03T16:55:53.349Z,32.53
2022-08-03T16:58:34.510Z,32.50
2022-08-03T17:01:20.880Z,32.55
2022-08-03T17:04:03.372Z,33.38
2022-08-03T17:06:35.205Z,33.75
2022-08-03T17:09:09.386Z,33.74
2022-08-03T17:11:46.586Z,33.82
2022-08-03T17:14:21.986Z,34.18
2022-08-03T17:16:52.939Z,35.01
2022-08-03T17:19:23.089Z,34.76
2022-08-03T17:21:59.744Z,34.25
2022-08-03T17:24:35.571Z,33.61
2022-08-03T17:28:41.380Z,33.55
2022-08-03T17:30:18.971Z,32.31
2022-08-03T17:32:52.735Z,32.61
2022-08-03T17:35:23.903Z,32.44
2022-08-03T17:38:03.057Z,32.12
2022-08-03T17:40:31.680Z,32.16
2022-08-03T17:43:00.699Z,32.88
2022-08-03T17:45:51.880Z,33.10
2022-08-03T17:48:18.518Z,32.77
2022-08-03T17:50:52.102Z,32.98
2022-08-03T17:53:28.058Z,32.48
2022-08-03T17:56:42.413Z,32.34
2022-08-03T17:59:15.996Z,33.29
2022-08-03T18:02:29.762Z,32.23
2022-08-03T18:05:16.040Z,32.69
2022-08-03T18:07:59.465Z,31.53
